Port-Cartier, Canada
Current Conditions -  °F | °C
As of 10:00 AM on Monday 24 Nov 2014 (Local Time) from CYZV Reporting Station
Blowing Snow Blowing Snow  
Wind Chill: 17°   Ceiling: 1300
Heat Index: 28°   Visibility: 10mi
Dew Point: 25°   Wind: 16mph
Humidity: 86%   Direction: 90°E
Pressure: 29.99"   Gusts: 26mph
Location:  50.03°N, 66.89°W
Report Text: CYZV 241500Z 09014G23KT 10SM -FZDZ DRSN BKN013 OVC020 M02/M04 A2999 RMK SF7SC1 SLP161
Loading
Personal Weather Stations






























Interactive Weather Map New forecast layout! Learn more

10-Day Weather Forecast

Advertisements
Track Severe Weather on mobile